createdAt,value
2023-04-28T00:02:24.612Z,5.87
2023-04-28T00:04:53.104Z,5.86
2023-04-28T00:07:21.600Z,5.86
2023-04-28T00:09:49.625Z,5.86
2023-04-28T00:12:17.664Z,5.87
2023-04-28T00:14:45.734Z,5.86
2023-04-28T00:17:14.081Z,5.84
2023-04-28T00:19:42.348Z,5.83
2023-04-28T00:22:10.577Z,5.81
2023-04-28T00:24:38.686Z,5.80
2023-04-28T00:27:07.605Z,5.78
2023-04-28T00:29:36.882Z,5.76
2023-04-28T00:32:05.148Z,5.76
2023-04-28T00:34:34.432Z,5.75
2023-04-28T00:37:02.622Z,5.75
2023-04-28T00:39:30.815Z,5.73
2023-04-28T00:41:58.922Z,5.72
2023-04-28T00:44:27.205Z,5.72
2023-04-28T00:46:55.808Z,5.68
2023-04-28T00:49:23.867Z,5.66
2023-04-28T00:51:52.221Z,5.64
2023-04-28T00:54:20.481Z,5.62
2023-04-28T00:56:49.413Z,5.63
2023-04-28T00:59:17.632Z,5.62
2023-04-28T01:01:46.311Z,5.62
2023-04-28T01:04:16.573Z,5.61
2023-04-28T01:06:44.952Z,5.59
2023-04-28T01:09:13.304Z,5.57
2023-04-28T01:11:42.180Z,5.56
2023-04-28T01:14:18.081Z,5.54
2023-04-28T01:16:47.539Z,5.52
2023-04-28T01:19:22.791Z,5.50
2023-04-28T01:21:51.249Z,5.47
2023-04-28T01:24:23.499Z,5.45
2023-04-28T01:26:51.921Z,5.42
2023-04-28T01:29:19.978Z,5.40
2023-04-28T01:31:48.131Z,5.41
2023-04-28T01:34:16.500Z,5.42
2023-04-28T01:36:44.777Z,5.42
2023-04-28T01:39:12.922Z,5.42
2023-04-28T01:41:42.591Z,5.41
2023-04-28T01:44:11.971Z,5.42
2023-04-28T01:46:40.096Z,5.42
2023-04-28T01:49:08.274Z,5.40
2023-04-28T01:51:36.312Z,5.40
2023-04-28T01:54:04.452Z,5.39
2023-04-28T01:56:32.698Z,5.39
2023-04-28T01:59:01.836Z,5.38
2023-04-28T02:01:30.292Z,5.38
2023-04-28T02:03:58.657Z,5.33
2023-04-28T02:06:28.116Z,5.32
2023-04-28T02:08:58.569Z,5.31
2023-04-28T02:11:26.684Z,5.29
2023-04-28T02:13:57.941Z,5.27
2023-04-28T02:16:26.329Z,5.28
2023-04-28T02:18:54.419Z,5.25
2023-04-28T02:21:22.459Z,5.22
2023-04-28T02:23:51.192Z,5.18
2023-04-28T02:26:19.390Z,5.16
2023-04-28T02:28:49.155Z,5.16
2023-04-28T02:31:18.453Z,5.15
2023-04-28T02:33:48.122Z,5.14
2023-04-28T02:36:16.271Z,5.16
2023-04-28T02:38:45.159Z,5.16
2023-04-28T02:41:15.115Z,5.14
2023-04-28T02:43:43.860Z,5.12
2023-04-28T02:46:12.019Z,5.12
2023-04-28T02:48:40.968Z,5.11
2023-04-28T02:51:09.532Z,5.11
2023-04-28T02:53:37.725Z,5.09
2023-04-28T02:56:06.533Z,5.08
2023-04-28T02:58:35.248Z,5.09
2023-04-28T03:01:03.624Z,5.10
2023-04-28T03:03:31.908Z,5.07
2023-04-28T03:06:00.178Z,5.05
2023-04-28T03:08:28.419Z,5.05
2023-04-28T03:10:56.760Z,5.02
2023-04-28T03:13:25.558Z,5.02
2023-04-28T03:15:53.831Z,5.00
2023-04-28T03:18:23.450Z,5.03
2023-04-28T03:20:51.552Z,5.03
2023-04-28T03:23:21.149Z,4.99
2023-04-28T03:25:49.373Z,4.98
2023-04-28T03:28:17.479Z,4.96
2023-04-28T03:30:46.283Z,4.96
2023-04-28T03:33:14.357Z,4.98
2023-04-28T03:35:42.456Z,4.99
2023-04-28T03:38:10.686Z,4.98
2023-04-28T03:40:38.832Z,4.96
2023-04-28T03:43:13.105Z,4.95
2023-04-28T03:45:51.553Z,4.93
2023-04-28T03:48:19.852Z,4.93
2023-04-28T03:50:48.116Z,4.90
2023-04-28T03:53:17.433Z,4.89
2023-04-28T03:55:45.688Z,4.89
2023-04-28T03:58:14.015Z,4.92
2023-04-28T04:00:42.109Z,4.93
2023-04-28T04:03:10.551Z,4.94
2023-04-28T04:05:41.487Z,4.96
2023-04-28T04:08:09.622Z,4.99
2023-04-28T04:10:37.651Z,5.01
2023-04-28T04:13:05.739Z,5.02
2023-04-28T04:15:34.220Z,5.05
2023-04-28T04:18:02.886Z,5.08
2023-04-28T04:20:39.352Z,5.11
2023-04-28T04:23:08.056Z,5.13
2023-04-28T04:25:36.321Z,5.16
2023-04-28T04:28:05.219Z,5.20
2023-04-28T04:30:33.487Z,5.25
2023-04-28T04:33:01.991Z,5.30
2023-04-28T04:35:30.078Z,5.33
2023-04-28T04:37:58.366Z,5.37
2023-04-28T04:40:26.875Z,5.41
2023-04-28T04:42:56.772Z,5.43
2023-04-28T04:45:28.523Z,5.47
2023-04-28T04:47:58.199Z,5.50
2023-04-28T04:50:26.386Z,5.53
2023-04-28T04:52:57.474Z,5.56
2023-04-28T04:55:26.149Z,5.56
2023-04-28T04:57:54.389Z,5.58
2023-04-28T05:00:41.504Z,5.61
2023-04-28T05:03:10.675Z,5.63
2023-04-28T05:05:40.905Z,5.65
2023-04-28T05:08:21.758Z,5.68
2023-04-28T05:10:49.860Z,5.68
2023-04-28T05:13:18.376Z,5.69
2023-04-28T05:15:46.676Z,5.71
2023-04-28T05:18:36.107Z,5.74
2023-04-28T05:21:04.549Z,5.77
2023-04-28T05:23:34.406Z,5.80
2023-04-28T05:26:04.159Z,5.84
2023-04-28T05:28:33.307Z,5.90
2023-04-28T05:31:02.790Z,5.95
2023-04-28T05:33:31.690Z,6.01
2023-04-28T05:36:00.173Z,6.07
2023-04-28T05:38:28.496Z,6.14
2023-04-28T05:40:56.939Z,6.19
2023-04-28T05:43:25.213Z,6.25
2023-04-28T05:45:55.071Z,6.31
2023-04-28T05:48:23.573Z,6.37
2023-04-28T05:50:51.837Z,6.42
2023-04-28T05:53:20.161Z,6.48
2023-04-28T05:55:49.042Z,6.53
2023-04-28T05:58:18.000Z,6.58
2023-04-28T06:00:47.630Z,6.64
2023-04-28T06:03:19.141Z,6.68
2023-04-28T06:05:48.367Z,6.71
2023-04-28T06:08:16.939Z,6.74
2023-04-28T06:10:45.269Z,6.78
2023-04-28T06:13:14.606Z,6.83
2023-04-28T06:15:43.445Z,6.88
2023-04-28T06:18:11.993Z,6.93
2023-04-28T06:20:40.063Z,6.98
2023-04-28T06:23:09.547Z,7.02
2023-04-28T06:25:44.591Z,7.07
2023-04-28T06:28:14.191Z,7.11
2023-04-28T06:30:42.288Z,7.13
2023-04-28T06:33:10.839Z,7.15
2023-04-28T06:35:40.649Z,7.17
2023-04-28T06:38:08.753Z,7.18
2023-04-28T06:40:41.108Z,7.21
2023-04-28T06:43:09.951Z,7.25
2023-04-28T06:46:01.694Z,7.29
2023-04-28T06:48:30.215Z,7.32
2023-04-28T06:50:58.277Z,7.34
2023-04-28T06:53:26.320Z,7.39
2023-04-28T06:55:54.692Z,7.44
2023-04-28T06:58:23.118Z,7.49
2023-04-28T07:00:51.577Z,7.53
2023-04-28T07:03:20.030Z,7.58
2023-04-28T07:05:48.743Z,7.60
2023-04-28T07:08:17.782Z,7.63
2023-04-28T07:10:45.799Z,7.68
2023-04-28T07:13:14.151Z,7.74
2023-04-28T07:15:42.454Z,7.81
2023-04-28T07:18:10.634Z,7.87
2023-04-28T07:20:38.711Z,7.92
2023-04-28T07:23:07.177Z,7.97
2023-04-28T07:25:36.484Z,8.00
2023-04-28T07:28:05.868Z,8.04
2023-04-28T07:30:34.928Z,8.09
2023-04-28T07:33:03.416Z,8.12
2023-04-28T07:35:31.677Z,8.12
2023-04-28T07:37:59.984Z,8.11
2023-04-28T07:40:28.252Z,8.11
2023-04-28T07:42:56.297Z,8.14
2023-04-28T07:45:24.407Z,8.17
2023-04-28T07:47:52.530Z,8.20
2023-04-28T07:50:21.133Z,8.23
2023-04-28T07:52:49.387Z,8.28
2023-04-28T07:55:17.515Z,8.31
2023-04-28T07:57:45.955Z,8.35
2023-04-28T08:00:14.988Z,8.38
2023-04-28T08:02:43.196Z,8.42
2023-04-28T08:05:12.115Z,8.47
2023-04-28T08:07:40.648Z,8.52
2023-04-28T08:10:10.742Z,8.56
2023-04-28T08:12:40.921Z,8.59
2023-04-28T08:15:10.414Z,8.60
2023-04-28T08:17:39.126Z,8.62
2023-04-28T08:20:08.031Z,8.64
2023-04-28T08:22:36.422Z,8.63
2023-04-28T08:25:04.912Z,8.64
2023-04-28T08:27:34.231Z,8.65
2023-04-28T08:30:02.806Z,8.67
2023-04-28T08:32:31.137Z,8.68
2023-04-28T08:34:59.277Z,8.71
2023-04-28T08:37:28.123Z,8.73
2023-04-28T08:40:02.281Z,8.76
2023-04-28T08:42:32.130Z,8.79
2023-04-28T08:45:00.272Z,8.83
2023-04-28T08:47:41.542Z,8.89
2023-04-28T08:50:10.256Z,8.96
2023-04-28T08:52:39.615Z,8.99
2023-04-28T08:55:10.563Z,9.01
2023-04-28T08:57:59.183Z,9.05
2023-04-28T09:00:27.391Z,9.08
2023-04-28T09:02:55.850Z,9.11
2023-04-28T09:05:24.325Z,9.13
2023-04-28T09:07:53.814Z,9.15
2023-04-28T09:10:26.677Z,9.19
2023-04-28T09:12:56.266Z,9.22
2023-04-28T09:15:33.861Z,9.26
2023-04-28T09:18:08.185Z,9.29
2023-04-28T09:20:37.262Z,9.32
2023-04-28T09:23:20.488Z,9.37
2023-04-28T09:25:59.312Z,9.42
2023-04-28T09:28:29.205Z,9.46
2023-04-28T09:30:57.440Z,9.51
2023-04-28T09:33:26.009Z,9.54
2023-04-28T09:35:54.980Z,9.57
2023-04-28T09:38:23.701Z,9.61
2023-04-28T09:40:59.872Z,9.66
2023-04-28T09:43:33.335Z,9.72
2023-04-28T09:46:06.489Z,9.77
2023-04-28T09:48:38.123Z,9.83
2023-04-28T09:51:08.165Z,9.84
2023-04-28T09:53:36.925Z,9.86
2023-04-28T09:56:05.506Z,9.88
2023-04-28T09:58:40.404Z,9.90
2023-04-28T10:01:11.752Z,9.89
2023-04-28T10:03:43.727Z,9.90
2023-04-28T10:06:11.920Z,9.93
2023-04-28T10:08:41.522Z,9.93
2023-04-28T10:11:10.758Z,9.93
2023-04-28T10:13:39.231Z,9.92
2023-04-28T10:16:08.284Z,9.92
2023-04-28T10:18:39.180Z,9.93
2023-04-28T10:21:08.485Z,9.94
2023-04-28T10:24:05.192Z,9.93
2023-04-28T10:27:09.392Z,9.88
2023-04-28T10:29:38.296Z,9.82
2023-04-28T10:32:19.876Z,9.81
2023-04-28T10:34:48.529Z,9.80
2023-04-28T10:37:18.513Z,9.81
2023-04-28T10:40:36.069Z,9.84
2023-04-28T10:43:05.132Z,9.86
2023-04-28T10:45:57.573Z,9.90
2023-04-28T10:48:29.555Z,9.93
2023-04-28T10:51:04.242Z,9.94
2023-04-28T10:53:52.062Z,9.96
2023-04-28T10:56:25.451Z,9.97
2023-04-28T10:59:00.524Z,10.00
2023-04-28T11:01:32.193Z,10.03
2023-04-28T11:04:18.278Z,10.07
2023-04-28T11:06:48.113Z,10.11
2023-04-28T11:09:16.211Z,10.17
2023-04-28T11:11:59.703Z,10.24
2023-04-28T11:14:33.807Z,10.31
2023-04-28T11:17:07.134Z,10.37
2023-04-28T11:19:35.185Z,10.47
2023-04-28T11:22:23.725Z,10.57
2023-04-28T11:24:59.932Z,10.65
2023-04-28T11:27:30.413Z,10.70
2023-04-28T11:29:59.870Z,10.74
2023-04-28T11:32:29.097Z,10.75
2023-04-28T11:34:57.433Z,10.77
2023-04-28T11:37:25.866Z,10.80
2023-04-28T11:39:54.300Z,10.85
2023-04-28T11:42:22.728Z,10.88
2023-04-28T11:44:55.026Z,10.88
2023-04-28T11:47:34.472Z,10.88
2023-04-28T11:50:03.430Z,10.90
2023-04-28T11:52:31.691Z,10.90
2023-04-28T11:55:02.557Z,10.85
2023-04-28T11:57:30.787Z,10.78
2023-04-28T12:00:20.036Z,10.67
2023-04-28T12:02:48.926Z,10.59
2023-04-28T12:05:17.398Z,10.52
2023-04-28T12:07:46.056Z,10.50
2023-04-28T12:10:19.057Z,10.50
2023-04-28T12:12:52.682Z,10.50
2023-04-28T12:15:22.943Z,10.50
2023-04-28T12:17:51.904Z,10.52
2023-04-28T12:20:35.361Z,10.55
2023-04-28T12:23:03.894Z,10.58
2023-04-28T12:25:34.117Z,10.60
2023-04-28T12:28:04.765Z,10.66
2023-04-28T12:30:35.332Z,10.75
2023-04-28T12:33:04.358Z,10.85
2023-04-28T12:35:33.341Z,10.99
2023-04-28T12:38:01.504Z,11.12
2023-04-28T12:40:29.749Z,11.23
2023-04-28T12:42:57.964Z,11.33
2023-04-28T12:45:26.284Z,11.41
2023-04-28T12:47:55.613Z,11.50
2023-04-28T12:50:25.801Z,11.60
2023-04-28T12:52:53.869Z,11.66
2023-04-28T12:55:21.937Z,11.71
2023-04-28T12:57:50.243Z,11.74
2023-04-28T13:00:21.382Z,11.71
2023-04-28T13:02:51.468Z,11.69
2023-04-28T13:05:20.203Z,11.65
2023-04-28T13:07:50.857Z,11.65
2023-04-28T13:10:19.273Z,11.62
2023-04-28T13:12:47.502Z,11.59
2023-04-28T13:15:15.942Z,11.57
2023-04-28T13:17:46.426Z,11.56
2023-04-28T13:20:14.652Z,11.56
2023-04-28T13:22:42.963Z,11.53
2023-04-28T13:25:11.770Z,11.51
2023-04-28T13:27:41.917Z,11.53
2023-04-28T13:30:12.214Z,11.53
2023-04-28T13:32:40.732Z,11.56
2023-04-28T13:35:09.682Z,11.66
2023-04-28T13:37:42.794Z,11.80
2023-04-28T13:40:11.867Z,11.97
2023-04-28T13:42:40.165Z,12.11
2023-04-28T13:45:08.647Z,12.26
2023-04-28T13:47:36.728Z,12.39
2023-04-28T13:50:05.215Z,12.53
2023-04-28T13:52:33.307Z,12.67
2023-04-28T13:55:01.441Z,12.81
2023-04-28T13:57:29.748Z,12.97
2023-04-28T13:59:57.905Z,13.14
2023-04-28T14:02:27.522Z,13.33
2023-04-28T14:04:56.023Z,13.50
2023-04-28T14:07:24.272Z,13.59
2023-04-28T14:09:52.383Z,13.69
2023-04-28T14:12:20.596Z,13.87
2023-04-28T14:14:49.581Z,13.98
2023-04-28T14:17:17.856Z,14.09
2023-04-28T14:19:46.841Z,14.20
2023-04-28T14:22:15.203Z,14.35
2023-04-28T14:24:43.696Z,14.50
2023-04-28T14:27:11.771Z,14.64
2023-04-28T14:29:40.172Z,14.71
2023-04-28T14:32:08.305Z,14.79
2023-04-28T14:34:36.606Z,14.94
2023-04-28T14:37:04.761Z,15.11
2023-04-28T14:39:32.890Z,15.27
2023-04-28T14:42:00.962Z,15.38
2023-04-28T14:44:29.096Z,15.48
2023-04-28T14:46:57.237Z,15.56
2023-04-28T14:49:27.585Z,15.56
2023-04-28T14:51:55.731Z,15.62
2023-04-28T14:54:23.964Z,15.75
2023-04-28T14:56:52.031Z,15.87
2023-04-28T14:59:20.690Z,15.95
2023-04-28T15:01:50.810Z,16.00
2023-04-28T15:04:19.570Z,16.12
2023-04-28T15:06:48.172Z,16.14
2023-04-28T15:09:16.320Z,16.11
2023-04-28T15:11:44.333Z,16.13
2023-04-28T15:14:12.435Z,16.12
2023-04-28T15:16:40.892Z,16.06
2023-04-28T15:19:08.998Z,16.07
2023-04-28T15:21:37.421Z,16.14
2023-04-28T15:24:05.855Z,16.19
2023-04-28T15:26:33.883Z,16.18
2023-04-28T15:29:02.319Z,16.14
2023-04-28T15:31:30.518Z,16.09
2023-04-28T15:33:58.946Z,15.99
2023-04-28T15:36:27.075Z,15.76
2023-04-28T15:38:56.316Z,15.59
2023-04-28T15:41:25.096Z,15.46
2023-04-28T15:43:53.434Z,15.36
2023-04-28T15:46:21.784Z,15.31
2023-04-28T15:48:50.094Z,15.27
2023-04-28T15:51:18.751Z,15.26
2023-04-28T15:53:46.815Z,15.29
2023-04-28T15:56:15.079Z,15.35
2023-04-28T15:58:43.803Z,15.45
2023-04-28T16:01:11.860Z,15.60
2023-04-28T16:03:40.491Z,15.68
2023-04-28T16:06:09.565Z,15.72
2023-04-28T16:08:37.830Z,15.82
2023-04-28T16:11:06.087Z,15.91
2023-04-28T16:13:37.155Z,15.84
2023-04-28T16:16:07.636Z,15.79
2023-04-28T16:18:36.879Z,15.74
2023-04-28T16:21:05.155Z,15.55
2023-04-28T16:23:33.559Z,15.48
2023-04-28T16:26:01.651Z,15.37
2023-04-28T16:28:29.774Z,15.25
2023-04-28T16:30:57.884Z,15.10
2023-04-28T16:33:25.954Z,14.91
2023-04-28T16:35:56.067Z,14.80
2023-04-28T16:38:24.361Z,14.71
2023-04-28T16:40:52.626Z,14.62
2023-04-28T16:43:21.253Z,14.54
2023-04-28T16:45:49.677Z,14.42
2023-04-28T16:48:18.660Z,14.32
2023-04-28T16:50:46.828Z,14.27
2023-04-28T16:53:14.969Z,14.29
2023-04-28T16:55:43.264Z,14.34
2023-04-28T16:58:11.737Z,14.32
2023-04-28T17:00:39.811Z,14.25
2023-04-28T17:03:08.104Z,14.17
2023-04-28T17:05:36.707Z,14.16
2023-04-28T17:08:04.877Z,14.10
2023-04-28T17:10:33.060Z,14.03
2023-04-28T17:13:01.380Z,14.00
2023-04-28T17:15:29.980Z,13.88
2023-04-28T17:17:58.148Z,13.73
2023-04-28T17:20:26.388Z,13.63
2023-04-28T17:22:54.816Z,13.53
2023-04-28T17:25:24.047Z,13.36
2023-04-28T17:27:52.276Z,13.20
2023-04-28T17:30:20.509Z,13.02
2023-04-28T17:32:48.652Z,12.85
2023-04-28T17:35:16.813Z,12.69
2023-04-28T17:37:45.007Z,12.52
2023-04-28T17:40:13.405Z,12.43
2023-04-28T17:42:41.807Z,12.33
2023-04-28T17:45:10.939Z,12.19
2023-04-28T17:47:39.181Z,12.02
2023-04-28T17:50:07.986Z,11.87
2023-04-28T17:52:36.513Z,11.74
2023-04-28T17:55:05.124Z,11.60
2023-04-28T17:57:33.391Z,11.48
2023-04-28T18:00:01.742Z,11.35
2023-04-28T18:02:40.109Z,11.23
2023-04-28T18:05:09.086Z,11.12
2023-04-28T18:07:37.849Z,11.04
2023-04-28T18:10:06.300Z,10.96
2023-04-28T18:12:34.620Z,10.88
2023-04-28T18:15:03.019Z,10.79
2023-04-28T18:17:31.576Z,10.69
2023-04-28T18:20:00.004Z,10.62
2023-04-28T18:22:28.298Z,10.55
2023-04-28T18:24:57.745Z,10.49
2023-04-28T18:27:26.060Z,10.41
2023-04-28T18:29:54.138Z,10.38
2023-04-28T18:32:22.574Z,10.35
2023-04-28T18:34:50.718Z,10.28
2023-04-28T18:37:19.089Z,10.21
2023-04-28T18:39:47.453Z,10.15
2023-04-28T18:42:15.445Z,10.10
2023-04-28T18:44:43.514Z,10.05
2023-04-28T18:47:12.899Z,10.01
2023-04-28T18:49:41.058Z,9.96
2023-04-28T18:52:09.082Z,9.90
2023-04-28T18:54:37.535Z,9.86
2023-04-28T18:57:06.728Z,9.82
2023-04-28T18:59:34.898Z,9.77
2023-04-28T19:02:03.456Z,9.74
2023-04-28T19:04:31.554Z,9.74
2023-04-28T19:06:59.669Z,9.72
2023-04-28T19:09:28.016Z,9.69
2023-04-28T19:11:56.788Z,9.66
2023-04-28T19:14:25.082Z,9.59
2023-04-28T19:16:53.464Z,9.53
2023-04-28T19:19:21.700Z,9.49
2023-04-28T19:21:50.957Z,9.48
2023-04-28T19:24:19.310Z,9.46
2023-04-28T19:26:47.376Z,9.45
2023-04-28T19:29:17.394Z,9.41
2023-04-28T19:31:45.891Z,9.37
2023-04-28T19:34:14.175Z,9.33
2023-04-28T19:36:42.431Z,9.28
2023-04-28T19:39:10.428Z,9.24
2023-04-28T19:41:38.436Z,9.20
2023-04-28T19:44:06.465Z,9.20
2023-04-28T19:46:34.631Z,9.18
2023-04-28T19:49:03.653Z,9.19
2023-04-28T19:51:31.741Z,9.19
2023-04-28T19:53:59.953Z,9.19
2023-04-28T19:56:28.436Z,9.17
2023-04-28T19:58:56.454Z,9.17
2023-04-28T20:01:24.691Z,9.14
2023-04-28T20:03:54.299Z,9.13
2023-04-28T20:06:22.526Z,9.12
2023-04-28T20:08:51.133Z,9.14
2023-04-28T20:11:19.741Z,9.14
2023-04-28T20:13:48.473Z,9.14
2023-04-28T20:16:17.339Z,9.14
2023-04-28T20:18:45.970Z,9.14
2023-04-28T20:21:14.087Z,9.14
2023-04-28T20:23:42.373Z,9.13
2023-04-28T20:26:16.627Z,9.12
2023-04-28T20:28:46.777Z,9.10
2023-04-28T20:31:15.471Z,9.08
2023-04-28T20:33:43.605Z,9.11
2023-04-28T20:36:13.050Z,9.12
2023-04-28T20:38:43.484Z,9.13
2023-04-28T20:41:12.266Z,9.11
2023-04-28T20:43:41.104Z,9.08
2023-04-28T20:46:10.409Z,9.09
2023-04-28T20:48:38.620Z,9.08
2023-04-28T20:51:07.612Z,9.09
2023-04-28T20:53:35.749Z,9.09
2023-04-28T20:56:04.240Z,9.08
2023-04-28T20:58:32.398Z,9.08
2023-04-28T21:01:01.487Z,9.07
2023-04-28T21:03:30.835Z,9.07
2023-04-28T21:05:59.125Z,9.07
2023-04-28T21:08:29.421Z,9.08
2023-04-28T21:10:57.450Z,9.11
2023-04-28T21:13:25.516Z,9.12
2023-04-28T21:15:53.947Z,9.12
2023-04-28T21:18:22.008Z,9.13
2023-04-28T21:20:51.249Z,9.14
2023-04-28T21:23:19.810Z,9.13
2023-04-28T21:25:47.958Z,9.11
2023-04-28T21:28:16.458Z,9.10
2023-04-28T21:30:44.498Z,9.10
2023-04-28T21:33:12.669Z,9.09
2023-04-28T21:35:40.748Z,9.11
2023-04-28T21:38:10.992Z,9.13
2023-04-28T21:40:39.370Z,9.15
2023-04-28T21:43:08.301Z,9.17
2023-04-28T21:45:36.462Z,9.21
2023-04-28T21:48:04.974Z,9.24
2023-04-28T21:50:33.095Z,9.25
2023-04-28T21:53:01.149Z,9.25
2023-04-28T21:55:29.309Z,9.26
2023-04-28T21:57:59.997Z,9.27
2023-04-28T22:00:28.557Z,9.27
2023-04-28T22:02:57.892Z,9.24
2023-04-28T22:05:26.221Z,9.23
2023-04-28T22:07:54.272Z,9.24
2023-04-28T22:10:22.914Z,9.23
2023-04-28T22:12:51.023Z,9.25
2023-04-28T22:15:19.254Z,9.26
2023-04-28T22:17:47.799Z,9.28
2023-04-28T22:20:16.067Z,9.28
2023-04-28T22:22:44.123Z,9.26
2023-04-28T22:25:12.442Z,9.22
2023-04-28T22:27:40.696Z,9.18
2023-04-28T22:30:10.047Z,9.15
2023-04-28T22:32:38.390Z,9.11
2023-04-28T22:35:07.124Z,9.08
2023-04-28T22:37:35.570Z,9.04
2023-04-28T22:40:04.734Z,8.99
2023-04-28T22:42:42.837Z,8.95
2023-04-28T22:45:11.915Z,8.93
2023-04-28T22:47:41.180Z,8.91
2023-04-28T22:50:10.908Z,8.89
2023-04-28T22:52:39.311Z,8.89
2023-04-28T22:55:07.919Z,8.90
2023-04-28T22:57:36.582Z,8.92
2023-04-28T23:00:06.030Z,8.93
2023-04-28T23:02:34.240Z,8.94
2023-04-28T23:05:02.496Z,8.94
2023-04-28T23:07:30.676Z,8.93
2023-04-28T23:09:58.757Z,8.92
2023-04-28T23:12:26.944Z,8.91
2023-04-28T23:14:55.777Z,8.89
2023-04-28T23:17:24.633Z,8.87
2023-04-28T23:19:52.873Z,8.86
2023-04-28T23:22:21.413Z,8.84
2023-04-28T23:24:49.447Z,8.82
2023-04-28T23:27:17.859Z,8.80
2023-04-28T23:29:45.942Z,8.79
2023-04-28T23:32:13.960Z,8.76
2023-04-28T23:34:42.848Z,8.73
2023-04-28T23:37:10.947Z,8.69
2023-04-28T23:39:38.987Z,8.65
2023-04-28T23:42:07.528Z,8.62
2023-04-28T23:44:35.793Z,8.57
2023-04-28T23:47:03.840Z,8.53
2023-04-28T23:49:31.896Z,8.50
2023-04-28T23:51:59.928Z,8.48
2023-04-28T23:54:27.968Z,8.46
2023-04-28T23:56:56.994Z,8.45
2023-04-28T23:59:25.787Z,8.44
